Agios Georgios I — SX9857 — position and weather

sailwx.info

Track history (hours):
 
Tides and Currents Weather Stations Pressure Air Temp Water Temp Dewpoint Dewpoint Depression Visibility Wind Speed Wind Dir Waves Ship Positions

Agios Georgios I

Last reported at 2017-Aug-21 12:04 UTC. Time now 2017-Aug-22 03:23 UTC.
Position N 37°38' E 024°52'.

Length 59 m; draft 5 m.

Type: Ship (hazmat cat B). MMSI: 239912000.

Date/timePositionNaut miles runAvg speedWind from/ knotsBaromVisibWave heightAir tempDewpointWater temp
2017-Aug-21 12:04N 37°38' E 024°52'1 7.8
2017-Aug-21 11:58N 37°37' E 024°53'4 7.7
2017-Aug-21 11:30N 37°34' E 024°55'5 8.0
2017-Aug-21 10:52N 37°29' E 024°58'3 8.4
2017-Aug-21 10:30N 37°27' E 024°57'1 2.2
2017-Aug-21 10:00N 37°26' E 024°56'0 0.0
2017-Aug-21 09:29N 37°26' E 024°56'0 0.0
2017-Aug-21 09:00N 37°26' E 024°56'0 0.0
2017-Aug-21 08:29N 37°26' E 024°56'0 0.0
2017-Aug-21 08:00N 37°26' E 024°56'0 0.0
2017-Aug-21 07:30N 37°26' E 024°56'0 0.0
2017-Aug-21 07:00N 37°26' E 024°56'0 0.0
2017-Aug-21 06:30N 37°26' E 024°56'0 0.0
2017-Aug-21 05:55N 37°26' E 024°56'0 0.0
2017-Aug-21 05:30N 37°26' E 024°56'0 0.0
2017-Aug-21 04:59N 37°26' E 024°56'0 0.0
2017-Aug-21 04:30N 37°26' E 024°56'0 0.0
2017-Aug-21 04:00N 37°26' E 024°56'0 0.0
2017-Aug-21 03:30N 37°26' E 024°56'0 0.0
2017-Aug-21 03:00N 37°26' E 024°56'0 0.0
2017-Aug-21 02:30N 37°26' E 024°56'0 0.0
2017-Aug-21 02:00N 37°26' E 024°56'0 0.0
2017-Aug-21 01:30N 37°26' E 024°56'0 0.0
2017-Aug-21 01:00N 37°26' E 024°56'0 0.0
2017-Aug-21 00:30N 37°26' E 024°56'0 0.0
2017-Aug-21 00:00N 37°26' E 024°56'0 0.0
2017-Aug-20 23:30N 37°26' E 024°56'0 0.0
2017-Aug-20 23:00N 37°26' E 024°56'0 0.0
2017-Aug-20 22:30N 37°26' E 024°56'0 0.0
2017-Aug-20 22:00N 37°26' E 024°56'0 0.0
2017-Aug-20 21:30N 37°26' E 024°56'0 0.0
2017-Aug-20 21:00N 37°26' E 024°56'0 0.0
2017-Aug-20 20:30N 37°26' E 024°56'1 1.3
2017-Aug-20 20:00N 37°26' E 024°57'4 8.0
2017-Aug-20 19:30N 37°30' E 024°58'4 7.9
2017-Aug-20 19:00N 37°32' E 024°53'4 8.3
2017-Aug-20 18:30N 37°32' E 024°48'47 8.1
2017-Aug-20 12:41N 37°37' E 023°49'1 8.8
2017-Aug-20 12:30N 37°38' E 023°47'4 8.5
2017-Aug-20 12:00N 37°40' E 023°42'4 8.8
2017-Aug-20 11:30N 37°44' E 023°40'4 8.7
2017-Aug-20 11:00N 37°48' E 023°37'4 7.9
2017-Aug-20 10:30N 37°50' E 023°33'5 9.1
2017-Aug-20 10:00N 37°50' E 023°27'4 9.0
2017-Aug-20 09:30N 37°51' E 023°22'5 9.0
2017-Aug-20 09:00N 37°53' E 023°16'4 9.0
2017-Aug-20 08:30N 37°54' E 023°11'4 8.5
2017-Aug-20 07:59N 37°55' E 023°05'0 0.1
2017-Aug-20 07:30N 37°55' E 023°05'0 0.0
2017-Aug-20 07:00N 37°55' E 023°05'0 0.0
2017-Aug-20 06:26N 37°55' E 023°05'0 0.0
2017-Aug-20 05:59N 37°55' E 023°05'0 0.0
2017-Aug-20 05:30N 37°55' E 023°05'0 0.0
2017-Aug-20 03:24N 37°55' E 023°05'0 0.0
2017-Aug-20 02:59N 37°55' E 023°05'0 0.0
2017-Aug-20 02:26N 37°55' E 023°05'0 0.0
2017-Aug-20 00:29N 37°55' E 023°05'0 0.0
2017-Aug-19 23:54N 37°55' E 023°05'0 0.0
2017-Aug-19 23:29N 37°55' E 023°05'0 0.0
2017-Aug-19 20:35N 37°55' E 023°05'0 0.0
2017-Aug-19 20:08N 37°55' E 023°05'1 2.5
2017-Aug-19 19:49N 37°55' E 023°06'3 8.6
2017-Aug-19 19:30N 37°54' E 023°10'5 9.0
2017-Aug-19 19:00N 37°53' E 023°15'4 8.9
2017-Aug-19 18:30N 37°52' E 023°21'4 8.8
2017-Aug-19 18:00N 37°51' E 023°26'4 8.5
2017-Aug-19 17:30N 37°50' E 023°31'4 8.9
2017-Aug-19 17:00N 37°54' E 023°34'4 7.4
2017-Aug-19 16:30N 37°57' E 023°35'0 0.0
2017-Aug-19 16:00N 37°57' E 023°35'0 0.0
2017-Aug-19 15:30N 37°57' E 023°35'0 0.0
2017-Aug-19 15:00N 37°57' E 023°35'0 0.0
2017-Aug-19 14:00N 37°57' E 023°35'0 0.0
2017-Aug-19 13:30N 37°57' E 023°35'0 0.0
2017-Aug-19 13:00N 37°57' E 023°35'0 0.0
2017-Aug-19 12:30N 37°57' E 023°35'0 0.0
2017-Aug-19 12:00N 37°57' E 023°35'0 0.0
2017-Aug-19 11:30N 37°57' E 023°35'0 0.0
2017-Aug-19 11:00N 37°57' E 023°35'0 0.0
2017-Aug-19 10:30N 37°57' E 023°35'0 0.0
2017-Aug-19 10:00N 37°57' E 023°35'0 0.0
2017-Aug-19 09:30N 37°57' E 023°35'0 0.0
2017-Aug-19 09:00N 37°57' E 023°35'0 0.6
2017-Aug-19 08:30N 37°57' E 023°35'2 3.9
2017-Aug-19 08:00N 37°55' E 023°34'1 1.5
2017-Aug-19 07:30N 37°55' E 023°34'0 0.2
2017-Aug-19 07:00N 37°54' E 023°35'0 0.9
2017-Aug-19 06:30N 37°54' E 023°34'1 1.3
2017-Aug-19 06:00N 37°54' E 023°35'0 0.4
2017-Aug-19 05:30N 37°54' E 023°35'1 2.1
2017-Aug-19 05:00N 37°53' E 023°36'4 7.5
2017-Aug-19 04:30N 37°50' E 023°39'4 8.2
2017-Aug-19 04:00N 37°47' E 023°41'4 8.2
2017-Aug-19 03:30N 37°43' E 023°44'4 8.3
2017-Aug-19 03:00N 37°40' E 023°47'5 8.7
2017-Aug-19 02:28N 37°38' E 023°52'41 7.6
2017-Aug-18 21:01N 37°31' E 024°44'0 8.6
2017-Aug-18 21:00N 37°31' E 024°44'4 8.7
2017-Aug-18 20:30N 37°31' E 024°50'5 7.9
2017-Aug-18 19:52N 37°31' E 024°56'2 6.7
2017-Aug-18 19:30N 37°29' E 024°58'3 5.6
2017-Aug-18 19:00N 37°26' E 024°56'0 0.0
2017-Aug-18 18:30N 37°26' E 024°56'0 0.0
2017-Aug-18 18:00N 37°26' E 024°56'0 0.0
2017-Aug-18 17:30N 37°26' E 024°56'0 0.0
2017-Aug-18 16:56N 37°26' E 024°56'0 0.0
2017-Aug-18 16:28N 37°26' E 024°56'0 0.0
2017-Aug-18 16:00N 37°26' E 024°56'0 0.0
2017-Aug-18 15:30N 37°26' E 024°56'0 0.0
2017-Aug-18 15:00N 37°26' E 024°56'0 0.0
2017-Aug-18 14:30N 37°26' E 024°56'0 0.0
2017-Aug-18 13:30N 37°26' E 024°56'0 0.0
2017-Aug-18 12:59N 37°26' E 024°56'0 0.0
2017-Aug-18 12:28N 37°26' E 024°56'0 0.0
2017-Aug-18 11:59N 37°26' E 024°56'0 0.0
2017-Aug-18 11:30N 37°26' E 024°56'0 0.0
2017-Aug-18 11:00N 37°26' E 024°56'0 0.0
2017-Aug-18 10:28N 37°26' E 024°56'0 0.0
2017-Aug-18 10:00N 37°26' E 024°56'0 0.0
2017-Aug-18 09:30N 37°26' E 024°56'0 0.0
2017-Aug-18 09:00N 37°26' E 024°56'0 0.0
2017-Aug-18 08:30N 37°26' E 024°56'0 0.0
2017-Aug-18 08:00N 37°26' E 024°56'0 0.0
2017-Aug-18 07:29N 37°26' E 024°56'0 0.0
2017-Aug-18 07:00N 37°26' E 024°56'0 0.0
2017-Aug-18 06:30N 37°26' E 024°56'0 0.0
2017-Aug-18 05:57N 37°26' E 024°56'0 0.0
2017-Aug-18 05:30N 37°26' E 024°56'0 0.0
2017-Aug-18 04:59N 37°26' E 024°56'0 0.0
2017-Aug-18 04:29N 37°26' E 024°56'0 0.0
2017-Aug-18 03:50N 37°26' E 024°56'0 0.0
2017-Aug-18 03:20N 37°26' E 024°56'0 0.0
2017-Aug-18 02:57N 37°26' E 024°56'0 0.0
2017-Aug-18 02:28N 37°26' E 024°56'0 0.0
2017-Aug-18 01:59N 37°26' E 024°56'0 0.0
2017-Aug-18 01:30N 37°26' E 024°56'0 0.0
2017-Aug-18 01:00N 37°26' E 024°56'0 0.0
2017-Aug-18 00:30N 37°26' E 024°56'0 0.0
2017-Aug-18 00:00N 37°26' E 024°56'0 0.0
2017-Aug-17 23:28N 37°26' E 024°56'0 0.0
2017-Aug-17 22:57N 37°26' E 024°56'0 0.0
2017-Aug-17 22:30N 37°26' E 024°56'0 0.0
2017-Aug-17 21:58N 37°26' E 024°56'0 0.0
2017-Aug-17 21:27N 37°26' E 024°56'0 0.0
2017-Aug-17 20:59N 37°26' E 024°56'0 0.0
2017-Aug-17 20:27N 37°26' E 024°56'0 0.0
2017-Aug-17 19:58N 37°26' E 024°56'1 3.1
2017-Aug-17 19:30N 37°25' E 024°58'4 7.2
2017-Aug-17 19:00N 37°22' E 024°59'4 7.4
2017-Aug-17 18:30N 37°18' E 025°00'4 7.9
2017-Aug-17 18:00N 37°15' E 025°02'4 8.0
2017-Aug-17 17:30N 37°11' E 025°04'4 7.6
2017-Aug-17 17:00N 37°08' E 025°06'3 0.2
2017-Aug-17 03:41N 37°05' E 025°08'1 6.9
2017-Aug-17 03:30N 37°06' E 025°07'6 9.0
2017-Aug-17 02:52N 37°12' E 025°09'3 9.0
2017-Aug-17 02:30N 37°15' E 025°11'4 8.6
2017-Aug-17 02:00N 37°18' E 025°13'4 8.5
2017-Aug-17 01:30N 37°21' E 025°17'4 8.5
2017-Aug-17 01:00N 37°23' E 025°22'4 8.6
2017-Aug-17 00:30N 37°25' E 025°27'4 8.1
2017-Aug-17 00:00N 37°27' E 025°31'5 9.0
2017-Aug-16 23:30N 37°31' E 025°31'4 8.6
2017-Aug-16 23:00N 37°36' E 025°31'4 8.5
2017-Aug-16 22:30N 37°40' E 025°31'4 8.5
2017-Aug-16 22:00N 37°44' E 025°31'4 8.4
2017-Aug-16 21:30N 37°48' E 025°31'4 8.5
2017-Aug-16 21:00N 37°53' E 025°31'  
2017-Aug-12 14:16N 38°45' E 024°26'2 8.6
2017-Aug-12 14:00N 38°47' E 024°23'4 8.2
2017-Aug-12 13:30N 38°49' E 024°19'  
Track history (hours):
 
Tides and Currents Weather Stations Pressure Air Temp Water Temp Dewpoint Dewpoint Depression Visibility Wind Speed Wind Dir Waves Ship Positions

Agios Georgios I

Last reported at 2017-Aug-21 12:04 UTC. Time now 2017-Aug-22 03:23 UTC.
Position N 37°38' E 024°52'.

Length 59 m; draft 5 m.

Type: Ship (hazmat cat B). MMSI: 239912000.

Date/timePositionNaut miles runAvg speedWind from/ knotsBaromVisibWave heightAir tempDewpointWater temp
2017-Aug-21 12:04N 37°38' E 024°52'1 7.8
2017-Aug-21 11:58N 37°37' E 024°53'4 7.7
2017-Aug-21 11:30N 37°34' E 024°55'5 8.0
2017-Aug-21 10:52N 37°29' E 024°58'3 8.4
2017-Aug-21 10:30N 37°27' E 024°57'1 2.2
2017-Aug-21 10:00N 37°26' E 024°56'0 0.0
2017-Aug-21 09:29N 37°26' E 024°56'0 0.0
2017-Aug-21 09:00N 37°26' E 024°56'0 0.0
2017-Aug-21 08:29N 37°26' E 024°56'0 0.0
2017-Aug-21 08:00N 37°26' E 024°56'0 0.0
2017-Aug-21 07:30N 37°26' E 024°56'0 0.0
2017-Aug-21 07:00N 37°26' E 024°56'0 0.0
2017-Aug-21 06:30N 37°26' E 024°56'0 0.0
2017-Aug-21 05:55N 37°26' E 024°56'0 0.0
2017-Aug-21 05:30N 37°26' E 024°56'0 0.0
2017-Aug-21 04:59N 37°26' E 024°56'0 0.0
2017-Aug-21 04:30N 37°26' E 024°56'0 0.0
2017-Aug-21 04:00N 37°26' E 024°56'0 0.0
2017-Aug-21 03:30N 37°26' E 024°56'0 0.0
2017-Aug-21 03:00N 37°26' E 024°56'0 0.0
2017-Aug-21 02:30N 37°26' E 024°56'0 0.0
2017-Aug-21 02:00N 37°26' E 024°56'0 0.0
2017-Aug-21 01:30N 37°26' E 024°56'0 0.0
2017-Aug-21 01:00N 37°26' E 024°56'0 0.0
2017-Aug-21 00:30N 37°26' E 024°56'0 0.0
2017-Aug-21 00:00N 37°26' E 024°56'0 0.0
2017-Aug-20 23:30N 37°26' E 024°56'0 0.0
2017-Aug-20 23:00N 37°26' E 024°56'0 0.0
2017-Aug-20 22:30N 37°26' E 024°56'0 0.0
2017-Aug-20 22:00N 37°26' E 024°56'0 0.0
2017-Aug-20 21:30N 37°26' E 024°56'0 0.0
2017-Aug-20 21:00N 37°26' E 024°56'0 0.0
2017-Aug-20 20:30N 37°26' E 024°56'1 1.3
2017-Aug-20 20:00N 37°26' E 024°57'4 8.0
2017-Aug-20 19:30N 37°30' E 024°58'4 7.9
2017-Aug-20 19:00N 37°32' E 024°53'4 8.3
2017-Aug-20 18:30N 37°32' E 024°48'47 8.1
2017-Aug-20 12:41N 37°37' E 023°49'1 8.8
2017-Aug-20 12:30N 37°38' E 023°47'4 8.5
2017-Aug-20 12:00N 37°40' E 023°42'4 8.8
2017-Aug-20 11:30N 37°44' E 023°40'4 8.7
2017-Aug-20 11:00N 37°48' E 023°37'4 7.9
2017-Aug-20 10:30N 37°50' E 023°33'5 9.1
2017-Aug-20 10:00N 37°50' E 023°27'4 9.0
2017-Aug-20 09:30N 37°51' E 023°22'5 9.0
2017-Aug-20 09:00N 37°53' E 023°16'4 9.0
2017-Aug-20 08:30N 37°54' E 023°11'4 8.5
2017-Aug-20 07:59N 37°55' E 023°05'0 0.1
2017-Aug-20 07:30N 37°55' E 023°05'0 0.0
2017-Aug-20 07:00N 37°55' E 023°05'0 0.0
2017-Aug-20 06:26N 37°55' E 023°05'0 0.0
2017-Aug-20 05:59N 37°55' E 023°05'0 0.0
2017-Aug-20 05:30N 37°55' E 023°05'0 0.0
2017-Aug-20 03:24N 37°55' E 023°05'0 0.0
2017-Aug-20 02:59N 37°55' E 023°05'0 0.0
2017-Aug-20 02:26N 37°55' E 023°05'0 0.0
2017-Aug-20 00:29N 37°55' E 023°05'0 0.0
2017-Aug-19 23:54N 37°55' E 023°05'0 0.0
2017-Aug-19 23:29N 37°55' E 023°05'0 0.0
2017-Aug-19 20:35N 37°55' E 023°05'0 0.0
2017-Aug-19 20:08N 37°55' E 023°05'1 2.5
2017-Aug-19 19:49N 37°55' E 023°06'3 8.6
2017-Aug-19 19:30N 37°54' E 023°10'5 9.0
2017-Aug-19 19:00N 37°53' E 023°15'4 8.9
2017-Aug-19 18:30N 37°52' E 023°21'4 8.8
2017-Aug-19 18:00N 37°51' E 023°26'4 8.5
2017-Aug-19 17:30N 37°50' E 023°31'4 8.9
2017-Aug-19 17:00N 37°54' E 023°34'4 7.4
2017-Aug-19 16:30N 37°57' E 023°35'0 0.0
2017-Aug-19 16:00N 37°57' E 023°35'0 0.0
2017-Aug-19 15:30N 37°57' E 023°35'0 0.0
2017-Aug-19 15:00N 37°57' E 023°35'0 0.0
2017-Aug-19 14:00N 37°57' E 023°35'0 0.0
2017-Aug-19 13:30N 37°57' E 023°35'0 0.0
2017-Aug-19 13:00N 37°57' E 023°35'0 0.0
2017-Aug-19 12:30N 37°57' E 023°35'0 0.0
2017-Aug-19 12:00N 37°57' E 023°35'0 0.0
2017-Aug-19 11:30N 37°57' E 023°35'0 0.0
2017-Aug-19 11:00N 37°57' E 023°35'0 0.0
2017-Aug-19 10:30N 37°57' E 023°35'0 0.0
2017-Aug-19 10:00N 37°57' E 023°35'0 0.0
2017-Aug-19 09:30N 37°57' E 023°35'0 0.0
2017-Aug-19 09:00N 37°57' E 023°35'0 0.6
2017-Aug-19 08:30N 37°57' E 023°35'2 3.9
2017-Aug-19 08:00N 37°55' E 023°34'1 1.5
2017-Aug-19 07:30N 37°55' E 023°34'0 0.2
2017-Aug-19 07:00N 37°54' E 023°35'0 0.9
2017-Aug-19 06:30N 37°54' E 023°34'1 1.3
2017-Aug-19 06:00N 37°54' E 023°35'0 0.4
2017-Aug-19 05:30N 37°54' E 023°35'1 2.1
2017-Aug-19 05:00N 37°53' E 023°36'4 7.5
2017-Aug-19 04:30N 37°50' E 023°39'4 8.2
2017-Aug-19 04:00N 37°47' E 023°41'4 8.2
2017-Aug-19 03:30N 37°43' E 023°44'4 8.3
2017-Aug-19 03:00N 37°40' E 023°47'5 8.7
2017-Aug-19 02:28N 37°38' E 023°52'41 7.6
2017-Aug-18 21:01N 37°31' E 024°44'0 8.6
2017-Aug-18 21:00N 37°31' E 024°44'4 8.7
2017-Aug-18 20:30N 37°31' E 024°50'5 7.9
2017-Aug-18 19:52N 37°31' E 024°56'2 6.7
2017-Aug-18 19:30N 37°29' E 024°58'3 5.6
2017-Aug-18 19:00N 37°26' E 024°56'0 0.0
2017-Aug-18 18:30N 37°26' E 024°56'0 0.0
2017-Aug-18 18:00N 37°26' E 024°56'0 0.0
2017-Aug-18 17:30N 37°26' E 024°56'0 0.0
2017-Aug-18 16:56N 37°26' E 024°56'0 0.0
2017-Aug-18 16:28N 37°26' E 024°56'0 0.0
2017-Aug-18 16:00N 37°26' E 024°56'0 0.0
2017-Aug-18 15:30N 37°26' E 024°56'0 0.0
2017-Aug-18 15:00N 37°26' E 024°56'0 0.0
2017-Aug-18 14:30N 37°26' E 024°56'0 0.0
2017-Aug-18 13:30N 37°26' E 024°56'0 0.0
2017-Aug-18 12:59N 37°26' E 024°56'0 0.0
2017-Aug-18 12:28N 37°26' E 024°56'0 0.0
2017-Aug-18 11:59N 37°26' E 024°56'0 0.0
2017-Aug-18 11:30N 37°26' E 024°56'0 0.0
2017-Aug-18 11:00N 37°26' E 024°56'0 0.0
2017-Aug-18 10:28N 37°26' E 024°56'0 0.0
2017-Aug-18 10:00N 37°26' E 024°56'0 0.0
2017-Aug-18 09:30N 37°26' E 024°56'0 0.0
2017-Aug-18 09:00N 37°26' E 024°56'0 0.0
2017-Aug-18 08:30N 37°26' E 024°56'0 0.0
2017-Aug-18 08:00N 37°26' E 024°56'0 0.0
2017-Aug-18 07:29N 37°26' E 024°56'0 0.0
2017-Aug-18 07:00N 37°26' E 024°56'0 0.0
2017-Aug-18 06:30N 37°26' E 024°56'0 0.0
2017-Aug-18 05:57N 37°26' E 024°56'0 0.0
2017-Aug-18 05:30N 37°26' E 024°56'0 0.0
2017-Aug-18 04:59N 37°26' E 024°56'0 0.0
2017-Aug-18 04:29N 37°26' E 024°56'0 0.0
2017-Aug-18 03:50N 37°26' E 024°56'0 0.0
2017-Aug-18 03:20N 37°26' E 024°56'0 0.0
2017-Aug-18 02:57N 37°26' E 024°56'0 0.0
2017-Aug-18 02:28N 37°26' E 024°56'0 0.0
2017-Aug-18 01:59N 37°26' E 024°56'0 0.0
2017-Aug-18 01:30N 37°26' E 024°56'0 0.0
2017-Aug-18 01:00N 37°26' E 024°56'0 0.0
2017-Aug-18 00:30N 37°26' E 024°56'0 0.0
2017-Aug-18 00:00N 37°26' E 024°56'0 0.0
2017-Aug-17 23:28N 37°26' E 024°56'0 0.0
2017-Aug-17 22:57N 37°26' E 024°56'0 0.0
2017-Aug-17 22:30N 37°26' E 024°56'0 0.0
2017-Aug-17 21:58N 37°26' E 024°56'0 0.0
2017-Aug-17 21:27N 37°26' E 024°56'0 0.0
2017-Aug-17 20:59N 37°26' E 024°56'0 0.0
2017-Aug-17 20:27N 37°26' E 024°56'0 0.0
2017-Aug-17 19:58N 37°26' E 024°56'1 3.1
2017-Aug-17 19:30N 37°25' E 024°58'4 7.2
2017-Aug-17 19:00N 37°22' E 024°59'4 7.4
2017-Aug-17 18:30N 37°18' E 025°00'4 7.9
2017-Aug-17 18:00N 37°15' E 025°02'4 8.0
2017-Aug-17 17:30N 37°11' E 025°04'4 7.6
2017-Aug-17 17:00N 37°08' E 025°06'3 0.2
2017-Aug-17 03:41N 37°05' E 025°08'1 6.9
2017-Aug-17 03:30N 37°06' E 025°07'6 9.0
2017-Aug-17 02:52N 37°12' E 025°09'3 9.0
2017-Aug-17 02:30N 37°15' E 025°11'4 8.6
2017-Aug-17 02:00N 37°18' E 025°13'4 8.5
2017-Aug-17 01:30N 37°21' E 025°17'4 8.5
2017-Aug-17 01:00N 37°23' E 025°22'4 8.6
2017-Aug-17 00:30N 37°25' E 025°27'4 8.1
2017-Aug-17 00:00N 37°27' E 025°31'5 9.0
2017-Aug-16 23:30N 37°31' E 025°31'4 8.6
2017-Aug-16 23:00N 37°36' E 025°31'4 8.5
2017-Aug-16 22:30N 37°40' E 025°31'4 8.5
2017-Aug-16 22:00N 37°44' E 025°31'4 8.4
2017-Aug-16 21:30N 37°48' E 025°31'4 8.5
2017-Aug-16 21:00N 37°53' E 025°31'  
2017-Aug-12 14:16N 38°45' E 024°26'2 8.6
2017-Aug-12 14:00N 38°47' E 024°23'4 8.2
2017-Aug-12 13:30N 38°49' E 024°19'  

Dump ship's entire track history